Time;durP1;ratioP1;P1;durP2;ratioP2;P2;SDS_P1;SDS_P2;PMS_P1;PMS_P2;Temp;Humidity;BMP_temperature;BMP_pressure;BME280_temperature;BME280_humidity;BME280_pressure;Samples;Min_cycle;Max_cycle;Signal;HPM_P1;HPM_P2
2022/06/25 00:01:30;;;;;;;10.20;8.07;;;23.60;51.20;;;;;;5054230;28;45344;-90
2022/06/25 00:03:57;;;;;;;11.77;8.25;;;23.60;51.20;;;;;;5054028;28;45174;-88
2022/06/25 00:06:23;;;;;;;11.30;8.98;;;23.60;51.20;;;;;;5050910;28;46961;-90
2022/06/25 00:08:51;;;;;;;10.85;9.20;;;23.60;51.20;;;;;;5053671;28;45233;-89
2022/06/25 00:14:06;;;;;;;11.82;8.98;;;23.60;51.20;;;;;;5054118;28;45289;-88
2022/06/25 00:16:33;;;;;;;12.35;8.85;;;23.60;51.30;;;;;;5053728;28;45312;-88
2022/06/25 00:19:00;;;;;;;11.32;9.32;;;23.60;51.30;;;;;;5053945;28;45523;-88
2022/06/25 00:21:27;;;;;;;12.57;9.68;;;23.50;51.30;;;;;;5053001;28;45317;-90
2022/06/25 00:23:54;;;;;;;12.35;9.55;;;23.50;51.20;;;;;;5050533;28;45241;-89
2022/06/25 00:26:21;;;;;;;13.07;9.38;;;23.50;51.20;;;;;;5053502;28;45742;-88
2022/06/25 00:28:48;;;;;;;11.60;9.73;;;23.50;51.20;;;;;;5053391;28;45198;-89
2022/06/25 00:31:16;;;;;;;15.23;10.13;;;23.50;51.20;;;;;;5053308;28;45226;-89
2022/06/25 00:33:43;;;;;;;11.18;9.55;;;23.50;51.20;;;;;;5053387;28;45293;-88
2022/06/25 00:36:10;;;;;;;12.90;9.75;;;23.50;51.30;;;;;;5047915;28;46845;-88
2022/06/25 00:38:37;;;;;;;13.27;10.15;;;23.50;51.20;;;;;;5050207;28;45175;-89
2022/06/25 00:41:04;;;;;;;13.07;10.48;;;23.50;51.20;;;;;;5047478;28;44693;-88
2022/06/25 00:43:31;;;;;;;12.55;10.30;;;23.50;51.20;;;;;;5047531;28;45431;-88
2022/06/25 00:45:58;;;;;;;13.23;10.43;;;23.50;51.20;;;;;;5050521;28;45288;-88
2022/06/25 00:48:27;;;;;;;14.55;10.43;;;23.50;51.20;;;;;;5050055;28;45222;-91
2022/06/25 00:50:53;;;;;;;12.52;10.55;;;23.40;51.20;;;;;;5049947;28;45233;-89
2022/06/25 00:53:20;;;;;;;13.82;11.27;;;23.40;51.10;;;;;;5050150;28;45513;-90
2022/06/25 00:55:49;;;;;;;16.10;11.55;;;23.40;51.10;;;;;;5049430;28;46373;-88
2022/06/25 00:58:15;;;;;;;15.27;11.18;;;23.40;51.10;;;;;;5050161;28;45281;-89
2022/06/25 01:00:42;;;;;;;15.85;11.27;;;23.40;51.10;;;;;;5049700;28;45270;-90
2022/06/25 01:03:09;;;;;;;14.00;11.80;;;23.40;51.10;;;;;;5049972;28;45170;-89
2022/06/25 01:05:37;;;;;;;14.70;11.13;;;23.40;51.10;;;;;;5049678;28;45426;-88
2022/06/25 01:08:06;;;;;;;15.77;11.88;;;23.40;51.10;;;;;;5046842;28;45241;-89
2022/06/25 01:10:33;;;;;;;15.00;11.95;;;23.40;51.10;;;;;;5049635;28;45182;-87
2022/06/25 01:12:59;;;;;;;15.55;11.50;;;23.40;51.10;;;;;;5046415;28;45253;-89
2022/06/25 01:15:27;;;;;;;15.75;12.05;;;23.40;51.10;;;;;;5049127;28;45356;-88
2022/06/25 01:17:54;;;;;;;16.70;11.63;;;23.40;51.10;;;;;;5049390;28;45211;-89
2022/06/25 01:20:23;;;;;;;14.80;11.77;;;23.30;51.20;;;;;;5049390;28;45262;-87
2022/06/25 01:22:51;;;;;;;15.10;11.88;;;23.30;51.10;;;;;;5049730;28;44976;-89
2022/06/25 01:25:20;;;;;;;15.10;11.52;;;23.30;51.10;;;;;;5048956;28;45599;-89
2022/06/25 01:27:47;;;;;;;14.15;11.88;;;23.30;51.10;;;;;;5049123;28;45746;-89
2022/06/25 01:30:14;;;;;;;16.90;12.82;;;23.30;51.10;;;;;;5049500;28;45281;-90
2022/06/25 01:32:41;;;;;;;14.77;11.40;;;23.30;51.10;;;;;;5046797;28;45273;-90
2022/06/25 01:35:09;;;;;;;14.82;11.40;;;23.30;51.10;;;;;;5048895;28;45425;-88
2022/06/25 01:37:36;;;;;;;15.35;11.95;;;23.30;51.10;;;;;;5049278;28;45304;-89
2022/06/25 01:40:05;;;;;;;16.90;12.27;;;23.30;51.10;;;;;;5046440;28;45214;-88
2022/06/25 01:45:15;;;;;;;15.90;11.30;;;23.20;51.10;;;;;;5037870;28;46405;-90
2022/06/25 01:47:42;;;;;;;15.07;11.80;;;23.20;51.10;;;;;;5047183;28;45237;-89
2022/06/25 01:50:09;;;;;;;15.48;11.45;;;23.20;51.10;;;;;;5048907;28;45273;-88
2022/06/25 01:52:36;;;;;;;15.10;10.90;;;23.20;51.10;;;;;;5048955;28;45351;-89
2022/06/25 01:55:05;;;;;;;13.55;11.05;;;23.20;51.00;;;;;;5049011;28;45461;-89
2022/06/25 01:57:32;;;;;;;15.45;11.32;;;23.20;51.10;;;;;;5048890;28;45296;-89
2022/06/25 01:59:59;;;;;;;14.30;11.25;;;23.10;51.10;;;;;;5048572;28;45236;-90
2022/06/25 02:02:26;;;;;;;13.93;10.75;;;23.10;51.10;;;;;;5048664;28;45285;-88
2022/06/25 02:04:52;;;;;;;14.48;11.07;;;23.20;51.10;;;;;;5045895;28;46656;-88
2022/06/25 02:07:19;;;;;;;14.00;10.60;;;23.10;51.10;;;;;;5047734;28;45276;-89
2022/06/25 02:09:46;;;;;;;14.20;10.43;;;23.10;51.10;;;;;;5048193;28;45254;-88
2022/06/25 02:12:14;;;;;;;13.10;9.90;;;23.10;51.00;;;;;;5048450;28;45300;-89
2022/06/25 02:14:41;;;;;;;12.35;10.68;;;23.10;51.10;;;;;;5048177;28;45275;-88
2022/06/25 02:17:08;;;;;;;13.65;10.10;;;23.10;51.00;;;;;;5048717;28;45354;-89
2022/06/25 02:19:35;;;;;;;13.45;10.13;;;23.00;51.10;;;;;;5048803;28;44713;-89
2022/06/25 02:22:02;;;;;;;13.35;11.00;;;23.10;51.10;;;;;;5048226;28;45607;-90
2022/06/25 02:24:29;;;;;;;14.82;9.88;;;23.10;51.00;;;;;;5045486;28;46655;-89
2022/06/25 02:26:56;;;;;;;12.68;9.55;;;23.10;51.10;;;;;;5047879;28;45264;-88
2022/06/25 02:29:24;;;;;;;11.90;9.02;;;23.10;51.10;;;;;;5045640;28;45226;-89
2022/06/25 02:31:51;;;;;;;12.27;9.82;;;23.10;51.00;;;;;;5048519;28;45229;-88
2022/06/25 02:34:18;;;;;;;11.38;8.90;;;23.10;51.10;;;;;;5045595;28;45368;-88
2022/06/25 02:36:44;;;;;;;11.77;9.23;;;23.00;51.00;;;;;;5045334;28;45323;-88
2022/06/25 02:39:11;;;;;;;11.68;8.73;;;23.00;51.00;;;;;;5047827;28;44740;-89
2022/06/25 02:41:38;;;;;;;9.57;8.18;;;23.00;51.00;;;;;;5045708;28;45217;-89
2022/06/25 02:44:05;;;;;;;11.23;8.50;;;23.00;51.00;;;;;;5045407;28;45681;-91
2022/06/25 02:46:33;;;;;;;13.23;8.98;;;23.00;51.00;;;;;;5047708;28;45329;-88
2022/06/25 02:49:01;;;;;;;10.00;8.52;;;23.00;51.00;;;;;;5048094;28;45395;-89
2022/06/25 02:51:28;;;;;;;11.15;8.10;;;22.90;50.90;;;;;;5048047;28;45510;-89
2022/06/25 02:53:55;;;;;;;10.93;8.27;;;22.90;51.00;;;;;;5047789;28;45499;-89
2022/06/25 02:59:06;;;;;;;9.02;7.68;;;22.90;51.00;;;;;;5047603;28;45244;-88
2022/06/25 03:01:35;;;;;;;9.10;7.22;;;22.90;51.00;;;;;;5047832;28;45376;-88
2022/06/25 03:04:01;;;;;;;10.43;8.02;;;22.90;51.00;;;;;;5046817;28;46164;-89
2022/06/25 03:06:28;;;;;;;9.10;7.00;;;22.90;51.00;;;;;;5047580;28;45197;-89
2022/06/25 03:08:56;;;;;;;9.80;6.82;;;22.90;51.00;;;;;;5048034;28;45341;-90
2022/06/25 03:11:22;;;;;;;9.65;6.97;;;22.90;50.90;;;;;;5048132;28;45313;-89
2022/06/25 03:13:50;;;;;;;9.70;7.70;;;22.90;51.00;;;;;;5047562;28;47178;-90
2022/06/25 03:16:25;;;;;;;8.38;6.55;;;22.90;50.90;;;;;;5047564;28;45301;-89
2022/06/25 03:18:54;;;;;;;7.78;6.75;;;22.90;51.00;;;;;;5044955;28;45246;-88
2022/06/25 03:21:20;;;;;;;8.15;6.47;;;22.90;51.00;;;;;;5047566;28;45498;-89
2022/06/25 03:23:47;;;;;;;8.43;6.88;;;22.80;50.90;;;;;;5047464;28;45300;-88
2022/06/25 03:26:14;;;;;;;7.82;6.13;;;22.80;50.90;;;;;;5047480;28;45209;-88
2022/06/25 03:28:41;;;;;;;8.75;6.35;;;22.80;51.00;;;;;;5047644;28;45233;-89
2022/06/25 03:31:08;;;;;;;7.72;6.35;;;22.80;51.00;;;;;;5047965;28;45383;-88
2022/06/25 03:33:35;;;;;;;7.63;6.20;;;22.80;50.80;;;;;;5047322;28;47322;-87
2022/06/25 03:36:04;;;;;;;7.57;6.00;;;22.80;50.90;;;;;;5047624;28;45316;-89
2022/06/25 03:38:31;;;;;;;7.57;5.93;;;22.80;51.00;;;;;;5047793;28;45332;-90
2022/06/25 03:43:38;;;;;;;6.55;5.88;;;22.80;51.00;;;;;;5045915;28;45500;-87
2022/06/25 03:46:05;;;;;;;8.15;6.60;;;22.80;50.90;;;;;;5044669;28;45284;-89
2022/06/25 03:48:32;;;;;;;6.88;5.70;;;22.80;50.90;;;;;;5044992;28;44775;-88
2022/06/25 03:50:59;;;;;;;7.13;5.85;;;22.70;51.00;;;;;;5044933;28;45169;-89
2022/06/25 03:53:27;;;;;;;6.00;5.40;;;22.70;51.00;;;;;;5047082;28;45175;-90
2022/06/25 03:55:54;;;;;;;6.63;5.35;;;22.70;51.00;;;;;;5047205;28;45307;-90
2022/06/25 03:58:21;;;;;;;7.57;5.50;;;22.70;51.00;;;;;;5049412;28;45277;-88
2022/06/25 04:00:48;;;;;;;7.45;5.22;;;22.70;50.90;;;;;;5047390;28;45171;-89
2022/06/25 04:03:15;;;;;;;9.07;5.35;;;22.70;51.00;;;;;;5047051;28;46498;-90
2022/06/25 04:05:42;;;;;;;7.50;5.10;;;22.70;50.90;;;;;;5046915;28;46187;-89
2022/06/25 04:08:09;;;;;;;5.85;4.55;;;22.70;50.90;;;;;;5047059;28;45311;-90
2022/06/25 04:10:37;;;;;;;5.40;4.45;;;22.70;50.80;;;;;;5044705;28;45358;-88
2022/06/25 04:13:04;;;;;;;6.75;4.40;;;22.70;50.80;;;;;;5050065;28;48241;-89
2022/06/25 04:15:33;;;;;;;9.35;4.57;;;22.70;50.90;;;;;;5050503;28;45451;-88
2022/06/25 04:17:59;;;;;;;5.70;4.47;;;22.70;50.80;;;;;;5050575;28;45321;-90
2022/06/25 04:20:26;;;;;;;5.78;4.93;;;22.70;50.90;;;;;;5050465;28;45284;-90
2022/06/25 04:22:53;;;;;;;4.93;4.32;;;22.70;50.90;;;;;;5047434;28;45519;-90
2022/06/25 04:25:20;;;;;;;5.70;4.80;;;22.70;50.80;;;;;;5050179;28;45217;-90
2022/06/25 04:30:33;;;;;;;7.70;5.10;;;22.70;50.80;;;;;;5050950;28;45185;-89
2022/06/25 04:33:00;;;;;;;4.90;4.10;;;22.70;50.80;;;;;;5049636;28;45234;-88
2022/06/25 04:35:26;;;;;;;6.00;4.50;;;22.70;50.80;;;;;;5049923;28;45305;-89
2022/06/25 04:37:53;;;;;;;5.63;4.35;;;22.70;50.80;;;;;;5050313;28;45205;-88
2022/06/25 04:40:20;;;;;;;5.70;4.43;;;22.70;50.90;;;;;;5050087;28;45380;-89
2022/06/25 04:42:48;;;;;;;5.55;4.28;;;22.70;50.80;;;;;;5047075;28;45391;-89
2022/06/25 04:45:15;;;;;;;4.28;3.85;;;22.70;50.80;;;;;;5050077;28;45425;-89
2022/06/25 04:47:42;;;;;;;4.43;4.03;;;22.70;50.90;;;;;;5050056;28;45277;-89
2022/06/25 04:50:09;;;;;;;6.18;4.00;;;22.70;50.90;;;;;;5049390;28;45183;-90
2022/06/25 04:52:36;;;;;;;4.88;3.78;;;22.70;50.90;;;;;;5046949;28;45669;-89
2022/06/25 04:55:03;;;;;;;5.82;3.90;;;22.70;50.90;;;;;;5047110;28;45269;-89
2022/06/25 04:57:30;;;;;;;4.20;3.65;;;22.70;50.90;;;;;;5047206;28;45312;-88
2022/06/25 04:59:58;;;;;;;4.65;3.75;;;22.70;50.90;;;;;;5050110;28;45356;-88
2022/06/25 05:02:25;;;;;;;4.88;3.63;;;22.70;50.80;;;;;;5049764;28;45243;-88
2022/06/25 05:04:52;;;;;;;5.00;3.63;;;22.60;50.80;;;;;;5049640;28;45186;-90
2022/06/25 05:07:19;;;;;;;5.25;3.88;;;22.60;50.80;;;;;;5049759;28;45404;-90
2022/06/25 05:09:46;;;;;;;6.38;4.13;;;22.70;50.90;;;;;;5050163;28;45316;-88
2022/06/25 05:13:11;;;;;;;4.47;3.47;;;22.70;50.80;;;;;;5046749;28;46528;-89
2022/06/25 05:15:01;;;;;;;4.30;3.55;;;22.70;50.80;;;;;;5052463;28;45202;-89
2022/06/25 05:17:29;;;;;;;5.35;3.35;;;22.70;50.80;;;;;;5046836;28;45206;-89
2022/06/25 05:19:56;;;;;;;5.72;3.65;;;22.70;50.80;;;;;;5050992;28;45340;-89
2022/06/25 05:22:23;;;;;;;3.88;3.28;;;22.70;50.70;;;;;;5049521;28;45241;-88
2022/06/25 05:24:50;;;;;;;5.05;3.10;;;22.80;50.70;;;;;;5049714;28;45138;-89
2022/06/25 05:27:17;;;;;;;3.80;3.40;;;22.80;50.70;;;;;;5046666;28;45248;-87
2022/06/25 05:29:44;;;;;;;4.28;3.33;;;22.80;51.20;;;;;;5049893;28;45280;-89
2022/06/25 05:32:12;;;;;;;4.45;3.53;;;22.80;50.60;;;;;;5049579;28;46683;-88
2022/06/25 05:34:39;;;;;;;4.20;3.20;;;22.80;50.60;;;;;;5049148;28;45345;-87
2022/06/25 05:37:07;;;;;;;4.28;3.17;;;22.80;50.60;;;;;;5046728;28;45229;-89
2022/06/25 05:39:34;;;;;;;3.33;3.03;;;22.80;50.60;;;;;;5049473;28;45215;-88
2022/06/25 05:42:01;;;;;;;3.00;2.80;;;22.80;50.60;;;;;;5048958;28;48020;-88
2022/06/25 05:44:27;;;;;;;4.60;3.08;;;22.80;50.60;;;;;;5046414;28;44734;-89
2022/06/25 05:46:54;;;;;;;2.63;2.38;;;22.80;50.60;;;;;;5048965;28;45257;-86
2022/06/25 05:49:23;;;;;;;5.13;2.80;;;22.80;50.60;;;;;;5046918;28;45408;-89
2022/06/25 05:51:49;;;;;;;2.80;2.40;;;22.80;50.70;;;;;;5049178;28;45489;-87
2022/06/25 05:54:17;;;;;;;3.13;2.63;;;22.80;50.60;;;;;;5046145;28;45296;-90
2022/06/25 05:56:44;;;;;;;2.88;2.58;;;22.90;50.70;;;;;;5046509;28;45143;-87
2022/06/25 05:59:10;;;;;;;2.70;2.38;;;22.80;50.70;;;;;;5046889;28;44649;-89
2022/06/25 06:01:37;;;;;;;3.30;2.45;;;22.90;50.60;;;;;;5048911;28;45291;-88
2022/06/25 06:04:05;;;;;;;2.97;2.35;;;22.90;50.60;;;;;;5051851;28;45308;-90
2022/06/25 06:06:33;;;;;;;2.70;2.50;;;22.90;50.70;;;;;;5049531;28;45283;-88
2022/06/25 06:09:00;;;;;;;3.70;2.97;;;22.90;50.60;;;;;;5048882;28;45236;-89
2022/06/25 06:11:26;;;;;;;3.17;2.58;;;22.90;50.60;;;;;;5045755;28;46533;-90
2022/06/25 06:13:53;;;;;;;3.80;2.80;;;22.90;50.60;;;;;;5048666;28;45253;-90
2022/06/25 06:16:20;;;;;;;2.40;2.20;;;22.90;50.50;;;;;;5048551;28;45399;-88
2022/06/25 06:18:47;;;;;;;3.17;2.47;;;22.90;50.60;;;;;;5049062;28;45264;-89
2022/06/25 06:21:14;;;;;;;4.13;2.40;;;23.00;51.10;;;;;;5046007;28;45676;-88
2022/06/25 06:23:42;;;;;;;2.60;2.35;;;23.00;50.30;;;;;;5048689;28;45198;-89
2022/06/25 06:26:09;;;;;;;2.50;2.10;;;23.10;50.30;;;;;;5048447;28;45302;-88
2022/06/25 06:28:36;;;;;;;2.75;2.50;;;23.10;50.20;;;;;;5048345;28;45421;-88
2022/06/25 06:31:03;;;;;;;2.40;2.20;;;23.10;50.40;;;;;;5048134;28;46242;-90
2022/06/25 06:33:30;;;;;;;3.00;2.15;;;23.10;50.40;;;;;;5046750;28;45397;-89
2022/06/25 06:35:56;;;;;;;2.88;2.35;;;23.10;50.30;;;;;;5048197;28;45104;-88
2022/06/25 06:38:23;;;;;;;2.85;2.22;;;23.10;50.40;;;;;;5048301;28;45182;-88
2022/06/25 06:40:51;;;;;;;2.47;2.20;;;23.10;50.40;;;;;;5048202;28;47355;-89
2022/06/25 06:43:18;;;;;;;3.55;2.22;;;23.10;50.30;;;;;;5045758;28;45308;-89
2022/06/25 06:45:45;;;;;;;2.42;2.22;;;23.10;50.40;;;;;;5045947;28;45153;-89
2022/06/25 06:48:12;;;;;;;2.35;1.90;;;23.10;50.40;;;;;;5046130;28;45218;-89
2022/06/25 06:50:39;;;;;;;2.22;1.90;;;23.20;50.30;;;;;;5048001;28;45261;-88
2022/06/25 06:53:06;;;;;;;2.55;2.00;;;23.20;50.30;;;;;;5048217;28;45308;-90
2022/06/25 06:55:33;;;;;;;2.50;2.17;;;23.20;50.30;;;;;;5045588;28;45281;-90
2022/06/25 06:58:01;;;;;;;2.78;1.90;;;23.20;50.40;;;;;;5048380;28;45407;-88
2022/06/25 07:00:28;;;;;;;2.40;2.20;;;23.20;50.50;;;;;;5045244;28;45381;-88
2022/06/25 07:02:55;;;;;;;2.20;2.00;;;23.20;50.30;;;;;;5047663;28;45215;-88
2022/06/25 07:05:22;;;;;;;2.63;1.98;;;23.20;50.20;;;;;;5048217;28;45274;-88
2022/06/25 07:07:48;;;;;;;2.13;1.92;;;23.30;51.00;;;;;;5045953;28;45387;-88
2022/06/25 07:10:15;;;;;;;2.10;1.90;;;23.30;50.30;;;;;;5045030;28;46645;-89
2022/06/25 07:12:42;;;;;;;1.70;1.60;;;23.30;50.90;;;;;;5047740;28;45159;-88
2022/06/25 07:15:16;;;;;;;2.13;1.92;;;23.30;50.20;;;;;;5047739;28;45254;-87
2022/06/25 07:17:43;;;;;;;2.20;1.90;;;23.30;50.20;;;;;;5045488;28;45181;-89
2022/06/25 07:20:10;;;;;;;1.63;1.52;;;23.30;50.40;;;;;;5047774;28;45241;-89
2022/06/25 07:22:37;;;;;;;1.38;1.10;;;23.30;50.70;;;;;;5044727;28;45373;-90
2022/06/25 07:25:05;;;;;;;4.70;1.20;;;23.40;52.00;;;;;;5048043;28;45300;-89
2022/06/25 07:27:32;;;;;;;1.92;1.25;;;23.40;51.80;;;;;;5047886;28;45435;-89
2022/06/25 07:29:59;;;;;;;2.50;1.10;;;23.40;51.60;;;;;;5047759;28;45456;-92
2022/06/25 07:32:27;;;;;;;0.98;0.90;;;23.50;52.70;;;;;;5047728;28;45237;-91
2022/06/25 07:34:54;;;;;;;0.90;0.90;;;23.50;52.90;;;;;;5047668;28;45390;-90
2022/06/25 07:37:21;;;;;;;0.80;0.80;;;23.50;52.70;;;;;;5045303;28;45271;-89
2022/06/25 07:39:48;;;;;;;0.98;0.88;;;23.50;52.90;;;;;;5047494;28;45720;-90
2022/06/25 07:42:14;;;;;;;0.88;0.88;;;23.60;52.80;;;;;;5047221;28;45204;-89
2022/06/25 07:44:41;;;;;;;1.95;0.90;;;23.60;52.90;;;;;;5045564;28;45355;-90
2022/06/25 07:47:08;;;;;;;0.80;0.80;;;23.60;52.60;;;;;;5048686;28;45277;-90
2022/06/25 07:52:17;;;;;;;1.65;0.82;;;23.70;52.70;;;;;;5049562;28;45309;-91
2022/06/25 07:54:45;;;;;;;1.05;0.70;;;23.80;52.90;;;;;;5031622;28;45302;-93
2022/06/25 07:57:12;;;;;;;3.05;0.82;;;23.80;53.10;;;;;;5037734;28;45182;-90
2022/06/25 07:59:39;;;;;;;2.10;1.00;;;23.80;53.20;;;;;;5032054;28;46554;-94
2022/06/25 08:02:06;;;;;;;1.80;0.88;;;23.80;52.90;;;;;;5031717;28;45178;-89
2022/06/25 08:04:33;;;;;;;1.55;0.88;;;23.90;52.70;;;;;;5050997;28;45292;-92
2022/06/25 08:07:01;;;;;;;4.63;0.90;;;23.90;52.80;;;;;;5051656;28;45427;-88
2022/06/25 08:09:28;;;;;;;4.18;1.15;;;23.90;52.80;;;;;;5050007;28;45441;-89
2022/06/25 08:11:55;;;;;;;7.65;1.27;;;23.90;53.00;;;;;;5033555;28;45448;-90
2022/06/25 08:14:22;;;;;;;7.80;1.20;;;24.00;53.00;;;;;;5043882;28;45426;-89
2022/06/25 08:16:49;;;;;;;3.05;1.00;;;24.10;53.00;;;;;;5046263;28;45453;-89
2022/06/25 08:19:16;;;;;;;2.03;0.90;;;24.10;52.80;;;;;;5040650;28;45242;-90
2022/06/25 08:21:43;;;;;;;1.77;1.00;;;24.20;53.40;;;;;;5051433;28;45246;-91
2022/06/25 08:24:11;;;;;;;3.35;1.02;;;24.30;52.80;;;;;;5052065;28;45230;-91
2022/06/25 08:26:38;;;;;;;2.65;0.90;;;24.30;52.80;;;;;;5050873;28;45424;-92
2022/06/25 08:29:05;;;;;;;4.25;1.50;;;24.40;52.10;;;;;;5056652;28;45401;-92
2022/06/25 08:31:32;;;;;;;5.95;1.10;;;24.40;53.40;;;;;;5047869;28;45211;-91
2022/06/25 08:33:59;;;;;;;9.45;1.48;;;24.50;53.90;;;;;;5045210;28;46146;-88
2022/06/25 08:36:26;;;;;;;6.90;1.52;;;24.50;53.30;;;;;;5060330;28;45175;-91
2022/06/25 08:38:53;;;;;;;3.95;1.20;;;24.50;53.20;;;;;;5052259;28;45547;-93
2022/06/25 08:41:21;;;;;;;2.95;1.02;;;24.60;53.70;;;;;;5049314;28;45482;-89
2022/06/25 08:43:48;;;;;;;8.88;3.08;;;24.70;53.70;;;;;;5049826;28;45194;-95
2022/06/25 08:46:16;;;;;;;6.22;1.48;;;24.70;54.00;;;;;;5047134;28;45164;-89
2022/06/25 08:48:43;;;;;;;4.47;1.35;;;24.70;53.30;;;;;;5054027;28;46624;-90
2022/06/25 08:51:10;;;;;;;4.70;1.40;;;24.80;53.30;;;;;;5071709;28;45396;-90
2022/06/25 08:53:37;;;;;;;1.52;1.13;;;24.80;53.20;;;;;;5072999;28;45339;-89
2022/06/25 08:56:04;;;;;;;6.88;1.58;;;24.90;53.50;;;;;;5069889;28;45186;-88
2022/06/25 08:58:33;;;;;;;10.45;1.60;;;24.90;53.60;;;;;;5074245;28;46545;-90
2022/06/25 09:01:00;;;;;;;2.33;1.50;;;25.00;53.90;;;;;;5070411;28;45382;-89
2022/06/25 09:03:27;;;;;;;8.77;1.75;;;25.00;53.10;;;;;;5069044;28;45405;-87
2022/06/25 09:05:53;;;;;;;2.50;1.42;;;25.00;52.70;;;;;;5065198;28;45371;-89
2022/06/25 09:08:20;;;;;;;1.30;1.20;;;25.10;52.70;;;;;;5051546;28;46381;-91
2022/06/25 09:10:54;;;;;;;3.25;1.00;;;25.10;52.80;;;;;;5061679;28;45233;-90
2022/06/25 09:13:23;;;;;;;3.08;0.95;;;25.10;50.80;;;;;;5078291;28;44846;-90
2022/06/25 09:15:55;;;;;;;1.23;1.00;;;25.20;51.70;;;;;;5070305;28;45475;-92
2022/06/25 09:18:22;;;;;;;2.75;0.98;;;25.20;51.70;;;;;;5088711;28;45501;-90
2022/06/25 09:20:59;;;;;;;2.70;0.93;;;25.20;52.10;;;;;;5090775;28;44755;-90
2022/06/25 09:23:26;;;;;;;1.85;0.90;;;25.20;51.80;;;;;;5090427;27;44807;-90
2022/06/25 09:26:05;;;;;;;2.45;1.00;;;25.30;51.20;;;;;;5092083;28;44940;-90
2022/06/25 09:28:33;;;;;;;1.27;1.13;;;25.30;51.60;;;;;;5087362;27;45258;-91
2022/06/25 09:31:02;;;;;;;4.85;1.80;;;25.40;52.70;;;;;;5091879;28;44695;-91
2022/06/25 09:33:29;;;;;;;3.25;2.08;;;25.50;52.10;;;;;;5090562;27;44790;-90
2022/06/25 09:35:56;;;;;;;4.15;1.70;;;25.60;51.80;;;;;;5090728;28;44904;-92
2022/06/25 09:38:24;;;;;;;5.85;1.90;;;25.70;50.90;;;;;;5091545;28;45383;-89
2022/06/25 09:40:52;;;;;;;1.27;1.17;;;25.80;51.40;;;;;;5086821;28;44820;-91
2022/06/25 09:43:20;;;;;;;27.65;21.50;;;25.80;50.50;;;;;;5086857;28;44995;-91
2022/06/25 09:45:48;;;;;;;34.15;26.50;;;25.90;52.50;;;;;;5082689;27;45017;-92
2022/06/25 09:48:20;;;;;;;247.90;187.38;;;26.00;52.10;;;;;;5073314;28;45175;-92
2022/06/25 09:51:07;;;;;;;362.95;262.33;;;26.10;53.10;;;;;;5064395;28;44750;-90
2022/06/25 09:53:34;;;;;;;243.32;168.07;;;26.20;52.30;;;;;;5068031;28;44862;-90
2022/06/25 09:56:01;;;;;;;92.30;61.97;;;26.20;51.10;;;;;;5066591;28;44792;-89
2022/06/25 09:58:28;;;;;;;104.40;72.13;;;26.30;50.00;;;;;;5065172;28;47009;-93
2022/06/25 10:00:55;;;;;;;156.05;103.22;;;26.30;49.90;;;;;;5061689;28;45382;-93
2022/06/25 10:03:24;;;;;;;57.72;38.42;;;26.30;51.00;;;;;;5054038;28;44809;-93
2022/06/25 10:05:51;;;;;;;13.95;9.48;;;26.30;50.50;;;;;;5055320;28;44998;-93
2022/06/25 10:08:20;;;;;;;19.17;13.73;;;26.40;50.00;;;;;;5049711;28;45318;-94
2022/06/25 10:10:48;;;;;;;11.20;8.35;;;26.40;50.50;;;;;;5038774;28;45162;-88
2022/06/25 10:13:16;;;;;;;7.25;4.30;;;26.40;49.80;;;;;;5039758;28;45140;-90
2022/06/25 10:15:43;;;;;;;4.20;3.42;;;26.40;48.90;;;;;;5044865;28;45401;-93
2022/06/25 10:18:10;;;;;;;10.32;5.28;;;26.40;49.20;;;;;;5049132;28;45496;-92
2022/06/25 10:20:42;;;;;;;7.53;4.22;;;26.50;49.60;;;;;;5043801;28;45184;-90
2022/06/25 10:23:09;;;;;;;8.68;4.18;;;26.70;50.20;;;;;;5050504;28;45344;-91
2022/06/25 10:25:42;;;;;;;8.88;4.10;;;26.90;49.90;;;;;;5048247;28;45238;-93
2022/06/25 10:28:10;;;;;;;4.05;2.33;;;27.10;49.70;;;;;;5054191;28;45667;-90
2022/06/25 10:30:46;;;;;;;6.75;2.42;;;27.10;47.90;;;;;;5052962;28;45203;-92
2022/06/25 10:33:19;;;;;;;12.05;2.67;;;27.10;48.70;;;;;;5053153;28;44781;-91
2022/06/25 10:35:48;;;;;;;3.40;1.90;;;27.10;49.90;;;;;;5049859;28;45269;-89
2022/06/25 10:38:16;;;;;;;2.90;1.60;;;27.10;50.20;;;;;;5034224;28;48656;-90
2022/06/25 10:40:52;;;;;;;4.88;3.13;;;27.20;50.80;;;;;;5041629;28;45375;-91
2022/06/25 10:43:53;;;;;;;5.63;2.55;;;27.20;49.40;;;;;;5046350;28;44867;-90
2022/06/25 10:46:30;;;;;;;5.30;4.18;;;27.30;51.50;;;;;;4998537;28;45509;-90
2022/06/25 10:48:59;;;;;;;2.20;2.00;;;27.40;50.20;;;;;;5007917;28;46903;-92
2022/06/25 10:51:35;;;;;;;4.75;3.08;;;27.40;48.40;;;;;;5035978;28;45443;-90
2022/06/25 10:54:17;;;;;;;2.15;1.95;;;27.50;49.20;;;;;;5063582;28;44952;-90
2022/06/25 10:56:45;;;;;;;3.90;2.30;;;27.50;47.90;;;;;;5075481;28;44969;-89
2022/06/25 10:59:31;;;;;;;3.35;1.60;;;27.50;49.40;;;;;;5067771;28;45476;-88
2022/06/25 11:02:09;;;;;;;8.90;2.38;;;27.60;48.50;;;;;;5067878;28;44723;-92
2022/06/25 11:04:38;;;;;;;13.95;2.92;;;27.70;49.50;;;;;;5070031;28;45361;-90
2022/06/25 11:07:10;;;;;;;5.95;1.67;;;27.70;48.90;;;;;;5064074;28;44879;-88
2022/06/25 11:09:38;;;;;;;1.92;1.30;;;27.70;47.50;;;;;;5059326;28;47282;-91
2022/06/25 11:12:07;;;;;;;1.35;1.10;;;27.70;46.30;;;;;;5068265;28;45421;-93
2022/06/25 11:14:35;;;;;;;2.97;1.17;;;27.70;44.80;;;;;;5067172;28;44832;-92
2022/06/25 11:17:07;;;;;;;18.88;7.07;;;27.70;46.80;;;;;;5065099;28;45246;-93
2022/06/25 11:19:34;;;;;;;2.42;1.70;;;27.80;47.80;;;;;;5063283;28;45208;-94
2022/06/25 11:22:02;;;;;;;1.58;1.25;;;27.90;47.80;;;;;;5069845;28;45202;-94
2022/06/25 11:24:30;;;;;;;1.90;1.70;;;27.90;46.40;;;;;;5060393;28;45465;-91
2022/06/25 11:29:58;;;;;;;3.80;1.75;;;28.00;46.60;;;;;;5056715;28;45446;-92
2022/06/25 11:32:26;;;;;;;2.55;1.30;;;28.00;46.40;;;;;;5063174;28;45186;-90
2022/06/25 11:34:54;;;;;;;1.65;1.33;;;28.20;47.30;;;;;;5065043;28;44890;-93
2022/06/25 11:37:22;;;;;;;1.63;1.02;;;28.20;45.80;;;;;;5057975;28;44812;-94
2022/06/25 11:39:52;;;;;;;1.58;1.20;;;28.20;45.20;;;;;;5042848;28;45615;-92
2022/06/25 11:42:19;;;;;;;1.27;0.88;;;28.30;44.90;;;;;;5060273;28;45348;-91
2022/06/25 11:44:47;;;;;;;2.42;1.05;;;28.30;44.40;;;;;;5070615;28;45622;-93
2022/06/25 11:47:14;;;;;;;4.05;1.17;;;28.40;45.10;;;;;;5068502;28;45289;-92
2022/06/25 11:49:42;;;;;;;1.00;0.90;;;28.50;47.00;;;;;;5061594;28;45234;-91
2022/06/25 11:52:09;;;;;;;5.47;1.17;;;28.60;45.10;;;;;;5066960;28;45656;-90
2022/06/25 11:54:37;;;;;;;3.60;1.17;;;28.70;44.50;;;;;;5070002;28;45443;-90
2022/06/25 11:57:09;;;;;;;2.67;1.00;;;28.80;43.70;;;;;;5066673;28;44851;-93
2022/06/25 11:59:37;;;;;;;1.05;1.00;;;28.90;43.50;;;;;;5069183;28;45506;-90
2022/06/25 12:02:05;;;;;;;1.75;1.15;;;29.00;42.80;;;;;;5068897;28;45201;-93
2022/06/25 12:04:45;;;;;;;2.20;1.08;;;29.00;42.80;;;;;;5063946;28;44918;-93
2022/06/25 12:07:17;;;;;;;2.33;1.20;;;29.10;42.50;;;;;;5061963;28;45404;-93
2022/06/25 12:09:44;;;;;;;2.58;2.10;;;29.20;43.00;;;;;;5062493;28;45638;-91
2022/06/25 12:12:12;;;;;;;3.28;2.17;;;29.20;43.30;;;;;;5068974;28;44896;-93
2022/06/25 12:14:40;;;;;;;3.28;2.00;;;29.30;43.70;;;;;;5065214;28;44902;-92
2022/06/25 12:17:09;;;;;;;4.32;1.40;;;29.30;42.30;;;;;;5066008;28;45293;-91
2022/06/25 12:19:47;;;;;;;1.15;1.13;;;29.30;42.30;;;;;;5047291;28;46281;-91
2022/06/25 12:22:21;;;;;;;1.02;1.00;;;29.40;42.30;;;;;;5061808;28;45221;-90
2022/06/25 12:24:48;;;;;;;3.20;1.40;;;29.40;43.30;;;;;;5066925;28;45377;-90
2022/06/25 12:27:17;;;;;;;1.30;1.20;;;29.50;42.90;;;;;;5060511;28;45350;-91
2022/06/25 12:29:47;;;;;;;3.22;1.35;;;29.50;42.70;;;;;;5059217;28;45200;-93
2022/06/25 12:32:15;;;;;;;6.05;1.73;;;29.60;44.10;;;;;;5066203;28;45383;-93
2022/06/25 12:34:52;;;;;;;1.70;1.10;;;29.80;44.80;;;;;;5053433;28;45452;-90
2022/06/25 12:37:29;;;;;;;1.20;0.95;;;29.80;43.50;;;;;;5066190;28;45254;-92
2022/06/25 12:39:57;;;;;;;2.90;1.33;;;29.80;43.60;;;;;;5056802;28;45459;-90
2022/06/25 12:42:47;;;;;;;4.72;1.20;;;29.80;44.10;;;;;;5063648;28;45512;-92
2022/06/25 12:45:20;;;;;;;1.95;1.10;;;29.80;42.80;;;;;;5056335;28;45428;-88
2022/06/25 12:47:46;;;;;;;1.23;0.90;;;29.90;42.40;;;;;;5055932;28;45178;-91
2022/06/25 12:50:23;;;;;;;8.00;6.30;;;29.80;42.00;;;;;;5061049;28;45339;-91
2022/06/25 12:52:50;;;;;;;2.42;1.80;;;29.80;41.00;;;;;;5059777;28;45408;-91
2022/06/25 12:55:20;;;;;;;3.35;2.10;;;29.80;41.50;;;;;;5066821;28;45516;-90
2022/06/25 12:57:48;;;;;;;3.83;2.33;;;29.90;44.20;;;;;;5073842;28;45347;-92
2022/06/25 13:00:21;;;;;;;2.90;2.10;;;30.00;44.60;;;;;;5059083;28;45503;-95
2022/06/25 13:02:48;;;;;;;2.97;1.90;;;30.20;43.50;;;;;;5048523;28;45460;-91
2022/06/25 13:05:15;;;;;;;7.30;2.15;;;30.20;43.60;;;;;;5059690;28;45499;-92
2022/06/25 13:07:42;;;;;;;2.97;1.25;;;30.30;41.60;;;;;;5070988;28;45421;-91